Aviation Digital Data Service (ADDS)

Output produced by METARs form (1101 UTC 23 June 2021)
found at http://www.aviationweather.gov/metar/data/
 
ESTA 231050Z 25010KT 9999 SCT018 20/14 Q1018
TAF ESTA 230807Z 2309/2318 28010KT 9999 BKN018